sensor_id;sensor_type;location;lat;lon;timestamp;P1;P2;P0
76049;PMS7003;64967;50.234;19.224;2023-09-12T00:00:06;23.00;20.75;16.50
76049;PMS7003;64967;50.234;19.224;2023-09-12T00:02:33;20.25;20.00;13.75
76049;PMS7003;64967;50.234;19.224;2023-09-12T00:04:59;18.75;18.00;11.75
76049;PMS7003;64967;50.234;19.224;2023-09-12T00:07:26;18.00;17.75;15.25
76049;PMS7003;64967;50.234;19.224;2023-09-12T00:09:53;24.00;18.00;13.00
76049;PMS7003;64967;50.234;19.224;2023-09-12T00:12:21;20.25;18.00;13.00
76049;PMS7003;64967;50.234;19.224;2023-09-12T00:14:50;12.50;12.50;10.00
76049;PMS7003;64967;50.234;19.224;2023-09-12T00:17:17;14.25;13.00;10.75
76049;PMS7003;64967;50.234;19.224;2023-09-12T00:19:44;9.50;8.75;7.00
76049;PMS7003;64967;50.234;19.224;2023-09-12T00:22:11;16.75;12.75;10.75
76049;PMS7003;64967;50.234;19.224;2023-09-12T00:24:37;10.75;10.50;9.00
76049;PMS7003;64967;50.234;19.224;2023-09-12T00:27:04;7.00;7.00;5.25
76049;PMS7003;64967;50.234;19.224;2023-09-12T00:29:32;13.25;11.25;8.50
76049;PMS7003;64967;50.234;19.224;2023-09-12T00:31:59;18.75;17.00;13.50
76049;PMS7003;64967;50.234;19.224;2023-09-12T00:34:26;23.00;21.25;15.00
76049;PMS7003;64967;50.234;19.224;2023-09-12T00:36:52;31.25;26.75;18.75
76049;PMS7003;64967;50.234;19.224;2023-09-12T00:39:19;37.75;32.75;21.00
76049;PMS7003;64967;50.234;19.224;2023-09-12T00:41:46;29.25;25.50;21.00
76049;PMS7003;64967;50.234;19.224;2023-09-12T00:44:12;26.75;23.00;18.50
76049;PMS7003;64967;50.234;19.224;2023-09-12T00:46:39;16.50;16.50;12.25
76049;PMS7003;64967;50.234;19.224;2023-09-12T00:49:06;17.00;14.75;11.75
76049;PMS7003;64967;50.234;19.224;2023-09-12T00:51:35;16.00;14.25;12.00
76049;PMS7003;64967;50.234;19.224;2023-09-12T00:54:03;18.00;17.25;15.00
76049;PMS7003;64967;50.234;19.224;2023-09-12T00:56:30;16.75;15.50;11.75
76049;PMS7003;64967;50.234;19.224;2023-09-12T00:58:58;20.00;19.50;13.75
76049;PMS7003;64967;50.234;19.224;2023-09-12T01:01:25;16.00;15.75;10.75
76049;PMS7003;64967;50.234;19.224;2023-09-12T01:03:52;14.50;12.75;10.00
76049;PMS7003;64967;50.234;19.224;2023-09-12T01:06:19;14.25;11.50;9.00
76049;PMS7003;64967;50.234;19.224;2023-09-12T01:08:50;16.25;12.75;11.00
76049;PMS7003;64967;50.234;19.224;2023-09-12T01:11:16;15.00;14.75;12.25
76049;PMS7003;64967;50.234;19.224;2023-09-12T01:13:44;18.00;16.00;11.50
76049;PMS7003;64967;50.234;19.224;2023-09-12T01:16:10;10.25;9.50;7.50
76049;PMS7003;64967;50.234;19.224;2023-09-12T01:18:37;10.00;10.00;8.25
76049;PMS7003;64967;50.234;19.224;2023-09-12T01:21:08;14.50;14.25;11.25
76049;PMS7003;64967;50.234;19.224;2023-09-12T01:29:21;11.00;11.00;9.00
76049;PMS7003;64967;50.234;19.224;2023-09-12T01:31:50;10.25;10.00;8.25
76049;PMS7003;64967;50.234;19.224;2023-09-12T01:34:18;23.25;21.50;17.00
76049;PMS7003;64967;50.234;19.224;2023-09-12T01:36:45;22.50;20.25;14.25
76049;PMS7003;64967;50.234;19.224;2023-09-12T01:39:12;21.00;19.00;15.75
76049;PMS7003;64967;50.234;19.224;2023-09-12T01:41:39;18.00;16.00;12.00
76049;PMS7003;64967;50.234;19.224;2023-09-12T01:44:09;17.25;16.00;11.75
76049;PMS7003;64967;50.234;19.224;2023-09-12T01:46:38;15.50;15.00;11.00
76049;PMS7003;64967;50.234;19.224;2023-09-12T01:49:06;17.50;14.25;10.75
76049;PMS7003;64967;50.234;19.224;2023-09-12T01:51:35;12.25;12.25;10.75
76049;PMS7003;64967;50.234;19.224;2023-09-12T01:54:03;9.50;8.75;8.00
76049;PMS7003;64967;50.234;19.224;2023-09-12T01:56:30;12.25;11.75;8.75
76049;PMS7003;64967;50.234;19.224;2023-09-12T01:58:57;16.25;14.50;10.50
76049;PMS7003;64967;50.234;19.224;2023-09-12T02:01:25;22.00;20.50;17.00
76049;PMS7003;64967;50.234;19.224;2023-09-12T02:03:53;22.75;19.75;15.00
76049;PMS7003;64967;50.234;19.224;2023-09-12T02:06:20;22.50;20.50;15.00
76049;PMS7003;64967;50.234;19.224;2023-09-12T02:08:47;16.00;14.00;12.50
76049;PMS7003;64967;50.234;19.224;2023-09-12T02:11:13;14.75;14.25;10.50
76049;PMS7003;64967;50.234;19.224;2023-09-12T02:13:40;15.75;15.00;11.25
76049;PMS7003;64967;50.234;19.224;2023-09-12T02:16:07;17.00;17.00;13.00
76049;PMS7003;64967;50.234;19.224;2023-09-12T02:18:34;14.75;13.00;10.00
76049;PMS7003;64967;50.234;19.224;2023-09-12T02:21:00;11.25;10.75;9.50
76049;PMS7003;64967;50.234;19.224;2023-09-12T02:23:27;10.25;9.75;7.75
76049;PMS7003;64967;50.234;19.224;2023-09-12T02:25:55;19.00;13.25;11.25
76049;PMS7003;64967;50.234;19.224;2023-09-12T02:28:22;13.25;11.50;9.00
76049;PMS7003;64967;50.234;19.224;2023-09-12T02:30:48;14.00;13.00;10.00
76049;PMS7003;64967;50.234;19.224;2023-09-12T02:33:15;8.25;8.25;6.75
76049;PMS7003;64967;50.234;19.224;2023-09-12T02:35:42;13.50;9.50;8.25
76049;PMS7003;64967;50.234;19.224;2023-09-12T02:38:08;9.50;9.00;7.00
76049;PMS7003;64967;50.234;19.224;2023-09-12T02:40:35;10.50;8.75;7.00
76049;PMS7003;64967;50.234;19.224;2023-09-12T02:43:02;10.50;7.75;5.25
76049;PMS7003;64967;50.234;19.224;2023-09-12T02:45:29;10.25;10.25;9.00
76049;PMS7003;64967;50.234;19.224;2023-09-12T02:47:55;10.50;10.50;8.00
76049;PMS7003;64967;50.234;19.224;2023-09-12T02:50:22;7.75;7.75;6.25
76049;PMS7003;64967;50.234;19.224;2023-09-12T02:52:48;8.00;7.00;6.00
76049;PMS7003;64967;50.234;19.224;2023-09-12T02:55:15;10.00;9.00;7.25
76049;PMS7003;64967;50.234;19.224;2023-09-12T02:57:42;7.75;7.00;6.00
76049;PMS7003;64967;50.234;19.224;2023-09-12T03:00:09;6.50;6.50;4.50
76049;PMS7003;64967;50.234;19.224;2023-09-12T03:02:37;13.00;13.00;10.00
76049;PMS7003;64967;50.234;19.224;2023-09-12T03:05:04;11.50;11.00;9.25
76049;PMS7003;64967;50.234;19.224;2023-09-12T03:07:31;12.75;11.25;9.00
76049;PMS7003;64967;50.234;19.224;2023-09-12T03:09:58;7.50;7.00;6.00
76049;PMS7003;64967;50.234;19.224;2023-09-12T03:12:24;11.25;11.00;9.50
76049;PMS7003;64967;50.234;19.224;2023-09-12T03:14:51;13.00;11.50;8.50
76049;PMS7003;64967;50.234;19.224;2023-09-12T03:17:18;9.00;8.50;6.25
76049;PMS7003;64967;50.234;19.224;2023-09-12T03:19:44;12.25;11.75;9.25
76049;PMS7003;64967;50.234;19.224;2023-09-12T03:22:11;14.25;12.75;9.00
76049;PMS7003;64967;50.234;19.224;2023-09-12T03:24:38;12.75;12.50;10.50
76049;PMS7003;64967;50.234;19.224;2023-09-12T03:27:05;8.50;6.50;5.00
76049;PMS7003;64967;50.234;19.224;2023-09-12T03:29:31;10.00;9.50;7.75
76049;PMS7003;64967;50.234;19.224;2023-09-12T03:31:58;13.25;13.00;10.00
76049;PMS7003;64967;50.234;19.224;2023-09-12T03:34:25;12.50;12.00;9.00
76049;PMS7003;64967;50.234;19.224;2023-09-12T03:36:51;13.25;12.50;9.75
76049;PMS7003;64967;50.234;19.224;2023-09-12T03:39:18;12.25;8.50;6.75
76049;PMS7003;64967;50.234;19.224;2023-09-12T03:41:45;26.00;23.50;17.25
76049;PMS7003;64967;50.234;19.224;2023-09-12T03:44:11;20.25;17.25;13.50
76049;PMS7003;64967;50.234;19.224;2023-09-12T03:46:38;16.50;14.25;12.00
76049;PMS7003;64967;50.234;19.224;2023-09-12T03:49:05;12.00;11.00;8.25
76049;PMS7003;64967;50.234;19.224;2023-09-12T03:51:33;14.00;13.25;10.75
76049;PMS7003;64967;50.234;19.224;2023-09-12T03:54:01;10.00;8.75;6.75
76049;PMS7003;64967;50.234;19.224;2023-09-12T03:56:29;13.00;10.50;7.75
76049;PMS7003;64967;50.234;19.224;2023-09-12T03:58:55;8.00;7.50;6.00
76049;PMS7003;64967;50.234;19.224;2023-09-12T04:01:24;11.75;11.00;9.00
76049;PMS7003;64967;50.234;19.224;2023-09-12T04:03:50;9.75;9.50;8.50
76049;PMS7003;64967;50.234;19.224;2023-09-12T04:06:17;11.00;10.25;8.00
76049;PMS7003;64967;50.234;19.224;2023-09-12T04:08:44;12.25;10.25;8.00
76049;PMS7003;64967;50.234;19.224;2023-09-12T04:11:11;12.75;10.75;8.25
76049;PMS7003;64967;50.234;19.224;2023-09-12T04:13:37;9.25;9.25;8.00
76049;PMS7003;64967;50.234;19.224;2023-09-12T04:16:04;11.00;10.00;9.00
76049;PMS7003;64967;50.234;19.224;2023-09-12T04:18:31;10.75;10.00;8.75
76049;PMS7003;64967;50.234;19.224;2023-09-12T04:20:58;8.00;7.00;6.50
76049;PMS7003;64967;50.234;19.224;2023-09-12T04:23:25;10.25;10.25;8.00
76049;PMS7003;64967;50.234;19.224;2023-09-12T04:25:51;7.25;6.00;5.50
76049;PMS7003;64967;50.234;19.224;2023-09-12T04:28:18;6.00;5.75;5.25
76049;PMS7003;64967;50.234;19.224;2023-09-12T04:30:45;9.50;9.50;7.50
76049;PMS7003;64967;50.234;19.224;2023-09-12T04:33:12;13.25;13.25;11.00
76049;PMS7003;64967;50.234;19.224;2023-09-12T04:35:39;18.75;18.00;14.00
76049;PMS7003;64967;50.234;19.224;2023-09-12T04:38:06;26.25;21.00;15.75
76049;PMS7003;64967;50.234;19.224;2023-09-12T04:40:32;22.25;19.50;16.75
76049;PMS7003;64967;50.234;19.224;2023-09-12T04:42:59;24.50;21.75;15.50
76049;PMS7003;64967;50.234;19.224;2023-09-12T04:45:26;23.00;20.50;14.75
76049;PMS7003;64967;50.234;19.224;2023-09-12T04:47:52;15.50;14.25;12.75
76049;PMS7003;64967;50.234;19.224;2023-09-12T04:50:19;14.00;13.00;12.00
76049;PMS7003;64967;50.234;19.224;2023-09-12T04:52:46;15.75;14.00;10.25
76049;PMS7003;64967;50.234;19.224;2023-09-12T04:55:12;14.25;13.25;9.50
76049;PMS7003;64967;50.234;19.224;2023-09-12T04:57:39;12.75;12.75;9.00
76049;PMS7003;64967;50.234;19.224;2023-09-12T05:00:08;15.50;14.00;12.00
76049;PMS7003;64967;50.234;19.224;2023-09-12T05:02:37;13.00;12.00;8.75
76049;PMS7003;64967;50.234;19.224;2023-09-12T05:05:04;13.25;12.00;9.25
76049;PMS7003;64967;50.234;19.224;2023-09-12T05:07:31;17.00;16.25;13.00
76049;PMS7003;64967;50.234;19.224;2023-09-12T05:09:58;16.25;14.50;12.25
76049;PMS7003;64967;50.234;19.224;2023-09-12T05:12:24;24.50;23.25;18.75
76049;PMS7003;64967;50.234;19.224;2023-09-12T05:14:51;20.75;19.75;15.50
76049;PMS7003;64967;50.234;19.224;2023-09-12T05:17:17;17.00;16.00;12.25
76049;PMS7003;64967;50.234;19.224;2023-09-12T05:19:44;15.00;14.50;11.25
76049;PMS7003;64967;50.234;19.224;2023-09-12T05:22:11;12.75;11.75;9.00
76049;PMS7003;64967;50.234;19.224;2023-09-12T05:24:37;14.25;13.50;8.75
76049;PMS7003;64967;50.234;19.224;2023-09-12T05:27:04;16.75;16.00;13.25
76049;PMS7003;64967;50.234;19.224;2023-09-12T05:29:32;13.50;12.25;9.25
76049;PMS7003;64967;50.234;19.224;2023-09-12T05:31:58;15.25;14.00;9.75
76049;PMS7003;64967;50.234;19.224;2023-09-12T05:34:25;20.75;19.00;15.75
76049;PMS7003;64967;50.234;19.224;2023-09-12T05:36:52;18.25;16.75;13.50
76049;PMS7003;64967;50.234;19.224;2023-09-12T05:39:18;19.75;19.25;15.25
76049;PMS7003;64967;50.234;19.224;2023-09-12T05:41:45;26.00;24.00;17.00
76049;PMS7003;64967;50.234;19.224;2023-09-12T05:44:12;21.00;20.50;15.75
76049;PMS7003;64967;50.234;19.224;2023-09-12T05:46:47;21.50;20.75;16.25
76049;PMS7003;64967;50.234;19.224;2023-09-12T05:49:14;23.75;21.50;17.75
76049;PMS7003;64967;50.234;19.224;2023-09-12T05:51:41;23.00;21.50;16.50
76049;PMS7003;64967;50.234;19.224;2023-09-12T05:54:09;17.50;16.50;12.25
76049;PMS7003;64967;50.234;19.224;2023-09-12T05:56:36;17.25;15.75;11.00
76049;PMS7003;64967;50.234;19.224;2023-09-12T05:59:03;19.50;19.50;14.00
76049;PMS7003;64967;50.234;19.224;2023-09-12T06:01:29;18.50;17.75;12.00
76049;PMS7003;64967;50.234;19.224;2023-09-12T06:03:56;18.25;15.50;12.75
76049;PMS7003;64967;50.234;19.224;2023-09-12T06:06:23;24.50;22.50;17.75
76049;PMS7003;64967;50.234;19.224;2023-09-12T06:08:50;28.25;26.75;20.25
76049;PMS7003;64967;50.234;19.224;2023-09-12T06:11:16;25.25;23.50;17.75
76049;PMS7003;64967;50.234;19.224;2023-09-12T06:13:43;30.25;27.25;20.25
76049;PMS7003;64967;50.234;19.224;2023-09-12T06:16:10;32.00;30.75;22.25
76049;PMS7003;64967;50.234;19.224;2023-09-12T06:18:36;25.25;23.25;19.75
76049;PMS7003;64967;50.234;19.224;2023-09-12T06:21:03;24.50;23.75;19.50
76049;PMS7003;64967;50.234;19.224;2023-09-12T06:23:32;24.25;22.50;18.25
76049;PMS7003;64967;50.234;19.224;2023-09-12T06:25:59;27.25;25.25;19.00
76049;PMS7003;64967;50.234;19.224;2023-09-12T06:28:26;30.25;28.25;20.00
76049;PMS7003;64967;50.234;19.224;2023-09-12T06:30:54;21.00;19.75;15.00
76049;PMS7003;64967;50.234;19.224;2023-09-12T06:33:21;18.50;17.25;12.75
76049;PMS7003;64967;50.234;19.224;2023-09-12T06:35:48;20.75;18.75;15.25
76049;PMS7003;64967;50.234;19.224;2023-09-12T06:38:16;20.00;19.75;16.75
76049;PMS7003;64967;50.234;19.224;2023-09-12T06:40:43;13.00;11.75;10.00
76049;PMS7003;64967;50.234;19.224;2023-09-12T06:43:09;16.00;13.67;10.67
76049;PMS7003;64967;50.234;19.224;2023-09-12T06:45:36;24.75;21.00;15.75
76049;PMS7003;64967;50.234;19.224;2023-09-12T06:48:04;21.00;18.75;16.50
76049;PMS7003;64967;50.234;19.224;2023-09-12T06:50:31;16.67;16.33;13.67
76049;PMS7003;64967;50.234;19.224;2023-09-12T06:53:00;20.00;18.00;14.00
76049;PMS7003;64967;50.234;19.224;2023-09-12T06:55:27;22.50;20.00;15.50
76049;PMS7003;64967;50.234;19.224;2023-09-12T06:57:54;16.67;15.67;12.00
76049;PMS7003;64967;50.234;19.224;2023-09-12T07:00:21;14.67;14.33;12.33
76049;PMS7003;64967;50.234;19.224;2023-09-12T07:02:47;14.33;14.00;10.67
76049;PMS7003;64967;50.234;19.224;2023-09-12T07:05:14;13.67;13.33;11.00
76049;PMS7003;64967;50.234;19.224;2023-09-12T07:07:41;12.33;11.33;9.33
76049;PMS7003;64967;50.234;19.224;2023-09-12T07:10:08;16.00;16.00;12.33
76049;PMS7003;64967;50.234;19.224;2023-09-12T07:12:49;16.33;15.33;12.33
76049;PMS7003;64967;50.234;19.224;2023-09-12T07:15:16;13.00;11.00;9.33
76049;PMS7003;64967;50.234;19.224;2023-09-12T07:17:43;16.33;16.00;12.00
76049;PMS7003;64967;50.234;19.224;2023-09-12T07:20:10;14.67;13.00;11.00
76049;PMS7003;64967;50.234;19.224;2023-09-12T07:22:38;16.00;12.33;10.33
76049;PMS7003;64967;50.234;19.224;2023-09-12T07:25:06;17.00;14.67;12.00
76049;PMS7003;64967;50.234;19.224;2023-09-12T07:27:33;15.00;15.00;12.00
76049;PMS7003;64967;50.234;19.224;2023-09-12T07:30:00;15.00;14.00;10.67
76049;PMS7003;64967;50.234;19.224;2023-09-12T07:32:27;14.33;13.00;11.00
76049;PMS7003;64967;50.234;19.224;2023-09-12T07:34:54;13.33;12.33;10.00
76049;PMS7003;64967;50.234;19.224;2023-09-12T07:37:20;9.00;8.67;6.67
76049;PMS7003;64967;50.234;19.224;2023-09-12T07:39:47;17.00;15.67;11.33
76049;PMS7003;64967;50.234;19.224;2023-09-12T07:42:14;18.33;16.33;14.33
76049;PMS7003;64967;50.234;19.224;2023-09-12T07:44:41;14.00;13.00;9.67
76049;PMS7003;64967;50.234;19.224;2023-09-12T07:47:07;9.00;9.00;8.00
76049;PMS7003;64967;50.234;19.224;2023-09-12T07:49:34;11.00;10.33;8.67
76049;PMS7003;64967;50.234;19.224;2023-09-12T07:52:01;10.33;10.33;8.33
76049;PMS7003;64967;50.234;19.224;2023-09-12T07:54:28;13.00;12.00;10.00
76049;PMS7003;64967;50.234;19.224;2023-09-12T07:56:57;23.33;23.00;17.33
76049;PMS7003;64967;50.234;19.224;2023-09-12T07:59:24;16.00;15.00;12.33
76049;PMS7003;64967;50.234;19.224;2023-09-12T08:01:51;22.67;19.67;14.00
76049;PMS7003;64967;50.234;19.224;2023-09-12T08:04:18;14.00;13.67;11.33
76049;PMS7003;64967;50.234;19.224;2023-09-12T08:06:45;16.33;15.33;12.33
76049;PMS7003;64967;50.234;19.224;2023-09-12T08:09:23;12.33;11.00;10.00
76049;PMS7003;64967;50.234;19.224;2023-09-12T08:11:50;12.00;11.00;10.00
76049;PMS7003;64967;50.234;19.224;2023-09-12T08:14:17;13.00;13.00;10.00
76049;PMS7003;64967;50.234;19.224;2023-09-12T08:16:46;11.00;11.00;9.00
76049;PMS7003;64967;50.234;19.224;2023-09-12T08:19:13;14.33;13.67;10.00
76049;PMS7003;64967;50.234;19.224;2023-09-12T08:21:43;15.33;15.33;13.00
76049;PMS7003;64967;50.234;19.224;2023-09-12T08:24:12;14.67;13.67;9.67
76049;PMS7003;64967;50.234;19.224;2023-09-12T08:26:38;13.00;13.00;12.00
76049;PMS7003;64967;50.234;19.224;2023-09-12T08:29:06;13.00;13.00;12.00
76049;PMS7003;64967;50.234;19.224;2023-09-12T08:31:32;14.00;12.33;11.00
76049;PMS7003;64967;50.234;19.224;2023-09-12T08:33:59;15.00;13.00;11.00
76049;PMS7003;64967;50.234;19.224;2023-09-12T08:36:26;14.67;14.67;12.00
76049;PMS7003;64967;50.234;19.224;2023-09-12T08:38:53;13.33;13.33;11.00
76049;PMS7003;64967;50.234;19.224;2023-09-12T08:41:19;12.00;11.00;9.00
76049;PMS7003;64967;50.234;19.224;2023-09-12T08:43:46;9.33;9.00;8.00
76049;PMS7003;64967;50.234;19.224;2023-09-12T08:46:15;13.67;13.00;10.67
76049;PMS7003;64967;50.234;19.224;2023-09-12T08:48:44;13.00;13.00;11.00
76049;PMS7003;64967;50.234;19.224;2023-09-12T08:51:12;9.67;9.67;8.00
76049;PMS7003;64967;50.234;19.224;2023-09-12T08:53:39;8.33;8.33;7.00
76049;PMS7003;64967;50.234;19.224;2023-09-12T08:56:06;9.67;9.33;8.00
76049;PMS7003;64967;50.234;19.224;2023-09-12T08:58:35;9.00;8.00;7.00
76049;PMS7003;64967;50.234;19.224;2023-09-12T09:01:03;13.00;12.00;9.33
76049;PMS7003;64967;50.234;19.224;2023-09-12T09:03:34;12.00;10.00;8.00
76049;PMS7003;64967;50.234;19.224;2023-09-12T09:06:01;11.67;11.67;10.00
76049;PMS7003;64967;50.234;19.224;2023-09-12T09:08:29;10.67;10.67;9.00
76049;PMS7003;64967;50.234;19.224;2023-09-12T09:10:58;12.67;12.00;9.00
76049;PMS7003;64967;50.234;19.224;2023-09-12T09:13:25;11.00;9.33;7.00
76049;PMS7003;64967;50.234;19.224;2023-09-12T09:18:51;7.00;7.00;5.67
76049;PMS7003;64967;50.234;19.224;2023-09-12T09:21:30;11.00;9.67;8.00
76049;PMS7003;64967;50.234;19.224;2023-09-12T09:23:59;10.67;10.33;9.33
76049;PMS7003;64967;50.234;19.224;2023-09-12T09:26:41;9.67;9.67;8.67
76049;PMS7003;64967;50.234;19.224;2023-09-12T09:29:20;10.00;10.00;8.33
76049;PMS7003;64967;50.234;19.224;2023-09-12T09:31:48;9.00;9.00;8.33
76049;PMS7003;64967;50.234;19.224;2023-09-12T09:34:18;9.33;9.33;9.00
76049;PMS7003;64967;50.234;19.224;2023-09-12T09:36:49;8.00;8.00;7.33
76049;PMS7003;64967;50.234;19.224;2023-09-12T09:39:21;10.67;10.67;9.00
76049;PMS7003;64967;50.234;19.224;2023-09-12T09:41:50;14.67;13.67;11.33
76049;PMS7003;64967;50.234;19.224;2023-09-12T09:44:18;11.67;10.00;9.00
76049;PMS7003;64967;50.234;19.224;2023-09-12T09:46:47;12.67;12.33;9.00
76049;PMS7003;64967;50.234;19.224;2023-09-12T09:49:19;10.33;9.33;8.33
76049;PMS7003;64967;50.234;19.224;2023-09-12T09:51:46;10.00;9.00;8.00
76049;PMS7003;64967;50.234;19.224;2023-09-12T09:54:14;4.33;4.00;3.67
76049;PMS7003;64967;50.234;19.224;2023-09-12T09:56:45;9.67;9.67;8.33
76049;PMS7003;64967;50.234;19.224;2023-09-12T09:59:21;10.33;9.33;8.00
76049;PMS7003;64967;50.234;19.224;2023-09-12T10:01:50;9.00;9.00;7.33
76049;PMS7003;64967;50.234;19.224;2023-09-12T10:04:21;14.33;14.00;11.00
76049;PMS7003;64967;50.234;19.224;2023-09-12T10:06:49;13.00;12.33;11.00
76049;PMS7003;64967;50.234;19.224;2023-09-12T10:09:16;11.00;11.00;9.00
76049;PMS7003;64967;50.234;19.224;2023-09-12T10:11:46;9.33;8.67;7.33
76049;PMS7003;64967;50.234;19.224;2023-09-12T10:14:15;9.33;9.33;7.67
76049;PMS7003;64967;50.234;19.224;2023-09-12T10:16:46;22.00;22.00;16.33
76049;PMS7003;64967;50.234;19.224;2023-09-12T10:19:25;10.00;10.00;8.00
76049;PMS7003;64967;50.234;19.224;2023-09-12T10:21:58;17.67;16.67;13.00
76049;PMS7003;64967;50.234;19.224;2023-09-12T10:24:33;15.33;14.00;12.00
76049;PMS7003;64967;50.234;19.224;2023-09-12T10:27:02;16.33;14.33;11.67
76049;PMS7003;64967;50.234;19.224;2023-09-12T10:29:31;16.67;15.00;11.67
76049;PMS7003;64967;50.234;19.224;2023-09-12T10:31:58;23.67;22.00;15.00
76049;PMS7003;64967;50.234;19.224;2023-09-12T10:34:26;17.00;16.33;14.00
76049;PMS7003;64967;50.234;19.224;2023-09-12T10:36:56;14.00;14.00;11.00
76049;PMS7003;64967;50.234;19.224;2023-09-12T10:39:27;11.67;11.33;10.00
76049;PMS7003;64967;50.234;19.224;2023-09-12T10:41:55;14.33;14.00;11.00
76049;PMS7003;64967;50.234;19.224;2023-09-12T10:44:24;13.67;13.67;12.00
76049;PMS7003;64967;50.234;19.224;2023-09-12T10:46:52;11.00;11.00;9.33
76049;PMS7003;64967;50.234;19.224;2023-09-12T10:49:21;3.33;3.33;2.67
76049;PMS7003;64967;50.234;19.224;2023-09-12T10:51:49;13.67;12.00;10.00
76049;PMS7003;64967;50.234;19.224;2023-09-12T10:54:23;14.33;13.67;11.67
76049;PMS7003;64967;50.234;19.224;2023-09-12T10:57:03;11.00;11.00;9.33
76049;PMS7003;64967;50.234;19.224;2023-09-12T10:59:30;15.67;14.00;11.67
76049;PMS7003;64967;50.234;19.224;2023-09-12T11:04:58;13.67;13.00;10.67
76049;PMS7003;64967;50.234;19.224;2023-09-12T11:07:44;14.00;12.67;10.33
76049;PMS7003;64967;50.234;19.224;2023-09-12T11:12:42;12.67;12.67;10.33
76049;PMS7003;64967;50.234;19.224;2023-09-12T11:15:09;13.67;13.00;10.67
76049;PMS7003;64967;50.234;19.224;2023-09-12T11:17:37;13.67;13.67;11.33
76049;PMS7003;64967;50.234;19.224;2023-09-12T11:20:05;16.00;14.33;11.33
76049;PMS7003;64967;50.234;19.224;2023-09-12T11:22:39;8.00;5.67;3.67
76049;PMS7003;64967;50.234;19.224;2023-09-12T11:27:46;25.33;22.33;16.67
76049;PMS7003;64967;50.234;19.224;2023-09-12T11:30:32;17.33;15.67;12.33
76049;PMS7003;64967;50.234;19.224;2023-09-12T11:32:59;11.67;9.33;8.33
76049;PMS7003;64967;50.234;19.224;2023-09-12T11:35:27;16.00;14.00;11.00
76049;PMS7003;64967;50.234;19.224;2023-09-12T11:37:58;17.33;16.00;12.00
76049;PMS7003;64967;50.234;19.224;2023-09-12T11:42:59;11.33;10.33;8.67
76049;PMS7003;64967;50.234;19.224;2023-09-12T11:45:26;13.67;13.00;9.33
76049;PMS7003;64967;50.234;19.224;2023-09-12T11:47:54;15.00;15.00;12.33
76049;PMS7003;64967;50.234;19.224;2023-09-12T11:50:31;16.00;14.67;12.33
76049;PMS7003;64967;50.234;19.224;2023-09-12T11:53:00;16.67;16.33;14.00
76049;PMS7003;64967;50.234;19.224;2023-09-12T11:55:30;14.67;13.67;11.00
76049;PMS7003;64967;50.234;19.224;2023-09-12T11:57:59;15.33;15.33;12.00
76049;PMS7003;64967;50.234;19.224;2023-09-12T12:00:26;14.33;14.00;11.00
76049;PMS7003;64967;50.234;19.224;2023-09-12T12:02:54;14.00;14.00;11.33
76049;PMS7003;64967;50.234;19.224;2023-09-12T12:05:22;9.33;9.33;9.00
76049;PMS7003;64967;50.234;19.224;2023-09-12T12:07:49;12.33;12.33;9.00
76049;PMS7003;64967;50.234;19.224;2023-09-12T12:10:16;11.00;10.67;9.00
76049;PMS7003;64967;50.234;19.224;2023-09-12T12:12:44;14.00;13.00;9.67
76049;PMS7003;64967;50.234;19.224;2023-09-12T12:15:14;11.00;10.67;9.00
76049;PMS7003;64967;50.234;19.224;2023-09-12T12:17:41;11.33;11.33;9.67
76049;PMS7003;64967;50.234;19.224;2023-09-12T12:20:09;12.33;12.33;9.33
76049;PMS7003;64967;50.234;19.224;2023-09-12T12:22:37;12.33;11.67;10.33
76049;PMS7003;64967;50.234;19.224;2023-09-12T12:25:06;11.67;11.67;10.00
76049;PMS7003;64967;50.234;19.224;2023-09-12T12:27:37;9.67;9.67;8.67
76049;PMS7003;64967;50.234;19.224;2023-09-12T12:30:09;9.00;8.67;7.67
76049;PMS7003;64967;50.234;19.224;2023-09-12T12:32:43;13.00;12.33;10.00
76049;PMS7003;64967;50.234;19.224;2023-09-12T12:35:19;12.33;11.33;9.33
76049;PMS7003;64967;50.234;19.224;2023-09-12T12:38:07;13.00;13.00;10.00
76049;PMS7003;64967;50.234;19.224;2023-09-12T12:40:37;12.67;12.33;10.67
76049;PMS7003;64967;50.234;19.224;2023-09-12T12:43:16;14.67;14.00;11.67
76049;PMS7003;64967;50.234;19.224;2023-09-12T12:45:55;11.33;10.67;9.00
76049;PMS7003;64967;50.234;19.224;2023-09-12T12:48:33;15.00;14.00;11.67
76049;PMS7003;64967;50.234;19.224;2023-09-12T12:51:16;12.00;10.00;9.00
76049;PMS7003;64967;50.234;19.224;2023-09-12T12:53:50;12.00;12.00;9.33
76049;PMS7003;64967;50.234;19.224;2023-09-12T12:56:30;13.33;12.33;10.00
76049;PMS7003;64967;50.234;19.224;2023-09-12T12:58:58;13.00;13.00;10.67
76049;PMS7003;64967;50.234;19.224;2023-09-12T13:01:29;13.67;13.67;10.33
76049;PMS7003;64967;50.234;19.224;2023-09-12T13:03:56;12.67;12.00;10.00
76049;PMS7003;64967;50.234;19.224;2023-09-12T13:06:23;12.33;12.00;9.33
76049;PMS7003;64967;50.234;19.224;2023-09-12T13:08:52;12.00;12.00;10.33
76049;PMS7003;64967;50.234;19.224;2023-09-12T13:11:18;9.67;9.67;8.67
76049;PMS7003;64967;50.234;19.224;2023-09-12T13:13:46;13.00;12.00;10.33
76049;PMS7003;64967;50.234;19.224;2023-09-12T13:16:17;11.00;11.00;8.67
76049;PMS7003;64967;50.234;19.224;2023-09-12T13:18:44;17.00;14.33;11.00
76049;PMS7003;64967;50.234;19.224;2023-09-12T13:21:11;10.67;10.67;8.67
76049;PMS7003;64967;50.234;19.224;2023-09-12T13:23:38;14.00;13.33;10.00
76049;PMS7003;64967;50.234;19.224;2023-09-12T13:26:06;11.33;11.33;10.00
76049;PMS7003;64967;50.234;19.224;2023-09-12T13:28:34;13.67;12.67;10.00
76049;PMS7003;64967;50.234;19.224;2023-09-12T13:31:01;12.00;11.00;9.00
76049;PMS7003;64967;50.234;19.224;2023-09-12T13:33:28;9.00;8.33;6.33
76049;PMS7003;64967;50.234;19.224;2023-09-12T13:35:55;10.00;9.00;7.00
76049;PMS7003;64967;50.234;19.224;2023-09-12T13:38:21;11.00;9.67;8.33
76049;PMS7003;64967;50.234;19.224;2023-09-12T13:40:49;7.67;7.67;6.33
76049;PMS7003;64967;50.234;19.224;2023-09-12T13:43:16;12.00;11.00;9.00
76049;PMS7003;64967;50.234;19.224;2023-09-12T13:45:43;10.33;10.33;9.00
76049;PMS7003;64967;50.234;19.224;2023-09-12T13:48:10;11.00;11.00;9.67
76049;PMS7003;64967;50.234;19.224;2023-09-12T13:50:38;12.00;12.00;9.33
76049;PMS7003;64967;50.234;19.224;2023-09-12T13:53:05;10.00;10.00;8.00
76049;PMS7003;64967;50.234;19.224;2023-09-12T13:55:33;13.00;13.00;9.67
76049;PMS7003;64967;50.234;19.224;2023-09-12T13:58:02;10.33;10.33;8.67
76049;PMS7003;64967;50.234;19.224;2023-09-12T14:00:31;11.67;11.00;9.67
76049;PMS7003;64967;50.234;19.224;2023-09-12T14:03:02;8.33;7.33;5.33
76049;PMS7003;64967;50.234;19.224;2023-09-12T14:05:29;10.67;10.67;9.00
76049;PMS7003;64967;50.234;19.224;2023-09-12T14:07:57;9.00;9.00;6.33